sensor_id;sensor_type;location;lat;lon;timestamp;P1;durP1;ratioP1;P2;durP2;ratioP2
51862;SDS011;37900;52.996;6.278;2022-12-29T00:00:05;7.27;;;3.10;;
51862;SDS011;37900;52.996;6.278;2022-12-29T00:02:32;6.03;;;3.03;;
51862;SDS011;37900;52.996;6.278;2022-12-29T00:04:58;5.18;;;2.70;;
51862;SDS011;37900;52.996;6.278;2022-12-29T00:07:23;5.25;;;2.90;;
51862;SDS011;37900;52.996;6.278;2022-12-29T00:09:49;6.38;;;2.88;;
51862;SDS011;37900;52.996;6.278;2022-12-29T00:12:14;6.85;;;2.83;;
51862;SDS011;37900;52.996;6.278;2022-12-29T00:14:40;4.82;;;2.65;;
51862;SDS011;37900;52.996;6.278;2022-12-29T00:17:24;5.05;;;2.83;;
51862;SDS011;37900;52.996;6.278;2022-12-29T00:19:50;3.90;;;2.47;;
51862;SDS011;37900;52.996;6.278;2022-12-29T00:22:34;6.00;;;2.80;;
51862;SDS011;37900;52.996;6.278;2022-12-29T00:25:19;6.97;;;3.08;;
51862;SDS011;37900;52.996;6.278;2022-12-29T00:28:03;3.75;;;2.50;;
51862;SDS011;37900;52.996;6.278;2022-12-29T00:30:48;5.63;;;2.40;;
51862;SDS011;37900;52.996;6.278;2022-12-29T00:33:32;4.75;;;2.40;;
51862;SDS011;37900;52.996;6.278;2022-12-29T00:38:47;5.65;;;2.97;;
51862;SDS011;37900;52.996;6.278;2022-12-29T00:41:34;5.38;;;2.60;;
51862;SDS011;37900;52.996;6.278;2022-12-29T00:44:18;5.30;;;2.22;;
51862;SDS011;37900;52.996;6.278;2022-12-29T00:46:44;4.90;;;2.60;;
51862;SDS011;37900;52.996;6.278;2022-12-29T00:49:11;4.00;;;2.60;;
51862;SDS011;37900;52.996;6.278;2022-12-29T00:52:06;4.97;;;2.47;;
51862;SDS011;37900;52.996;6.278;2022-12-29T00:54:34;3.65;;;2.65;;
51862;SDS011;37900;52.996;6.278;2022-12-29T00:57:02;4.38;;;2.63;;
51862;SDS011;37900;52.996;6.278;2022-12-29T00:59:29;3.03;;;2.10;;
51862;SDS011;37900;52.996;6.278;2022-12-29T01:01:55;4.40;;;2.40;;
51862;SDS011;37900;52.996;6.278;2022-12-29T01:04:22;4.35;;;2.60;;
51862;SDS011;37900;52.996;6.278;2022-12-29T01:06:49;3.65;;;2.30;;
51862;SDS011;37900;52.996;6.278;2022-12-29T01:09:15;4.88;;;2.47;;
51862;SDS011;37900;52.996;6.278;2022-12-29T01:12:01;4.35;;;2.53;;
51862;SDS011;37900;52.996;6.278;2022-12-29T01:14:27;4.93;;;2.80;;
51862;SDS011;37900;52.996;6.278;2022-12-29T01:16:53;5.28;;;2.67;;
51862;SDS011;37900;52.996;6.278;2022-12-29T01:19:19;5.60;;;2.67;;
51862;SDS011;37900;52.996;6.278;2022-12-29T01:21:46;3.25;;;2.20;;
51862;SDS011;37900;52.996;6.278;2022-12-29T01:24:12;2.77;;;2.13;;
51862;SDS011;37900;52.996;6.278;2022-12-29T01:26:39;4.30;;;1.98;;
51862;SDS011;37900;52.996;6.278;2022-12-29T01:29:05;5.28;;;2.47;;
51862;SDS011;37900;52.996;6.278;2022-12-29T01:31:30;3.85;;;2.33;;
51862;SDS011;37900;52.996;6.278;2022-12-29T01:33:56;4.95;;;2.30;;
51862;SDS011;37900;52.996;6.278;2022-12-29T01:36:22;3.42;;;2.30;;
51862;SDS011;37900;52.996;6.278;2022-12-29T01:38:49;6.03;;;2.63;;
51862;SDS011;37900;52.996;6.278;2022-12-29T01:41:15;4.65;;;2.20;;
51862;SDS011;37900;52.996;6.278;2022-12-29T01:43:57;5.20;;;2.22;;
51862;SDS011;37900;52.996;6.278;2022-12-29T01:49:12;3.00;;;2.25;;
51862;SDS011;37900;52.996;6.278;2022-12-29T01:51:48;3.08;;;2.30;;
51862;SDS011;37900;52.996;6.278;2022-12-29T01:54:24;4.50;;;2.00;;
51862;SDS011;37900;52.996;6.278;2022-12-29T01:57:17;3.53;;;2.38;;
51862;SDS011;37900;52.996;6.278;2022-12-29T01:59:53;3.05;;;2.05;;
51862;SDS011;37900;52.996;6.278;2022-12-29T02:02:26;3.03;;;1.77;;
51862;SDS011;37900;52.996;6.278;2022-12-29T02:04:52;4.38;;;2.47;;
51862;SDS011;37900;52.996;6.278;2022-12-29T02:07:21;4.07;;;2.20;;
51862;SDS011;37900;52.996;6.278;2022-12-29T02:09:49;3.78;;;2.42;;
51862;SDS011;37900;52.996;6.278;2022-12-29T02:12:18;4.65;;;2.25;;
51862;SDS011;37900;52.996;6.278;2022-12-29T02:14:46;4.22;;;2.17;;
51862;SDS011;37900;52.996;6.278;2022-12-29T02:41:32;4.03;;;2.25;;
51862;SDS011;37900;52.996;6.278;2022-12-29T02:44:13;3.58;;;2.10;;
51862;SDS011;37900;52.996;6.278;2022-12-29T02:51:55;3.83;;;2.10;;
51862;SDS011;37900;52.996;6.278;2022-12-29T02:54:26;3.92;;;2.10;;
51862;SDS011;37900;52.996;6.278;2022-12-29T02:57:12;4.40;;;1.90;;
51862;SDS011;37900;52.996;6.278;2022-12-29T02:59:47;3.40;;;1.98;;
51862;SDS011;37900;52.996;6.278;2022-12-29T03:02:25;2.45;;;1.90;;
51862;SDS011;37900;52.996;6.278;2022-12-29T03:07:45;3.15;;;1.70;;
51862;SDS011;37900;52.996;6.278;2022-12-29T03:10:23;3.80;;;1.77;;
51862;SDS011;37900;52.996;6.278;2022-12-29T03:24:19;3.60;;;1.77;;
51862;SDS011;37900;52.996;6.278;2022-12-29T03:26:48;3.40;;;2.00;;
51862;SDS011;37900;52.996;6.278;2022-12-29T03:29:16;3.53;;;1.60;;
51862;SDS011;37900;52.996;6.278;2022-12-29T03:31:43;3.78;;;2.28;;
51862;SDS011;37900;52.996;6.278;2022-12-29T03:34:10;3.60;;;1.90;;
51862;SDS011;37900;52.996;6.278;2022-12-29T03:37:00;3.60;;;1.77;;
51862;SDS011;37900;52.996;6.278;2022-12-29T03:39:29;3.55;;;2.03;;
51862;SDS011;37900;52.996;6.278;2022-12-29T03:42:00;3.40;;;1.55;;
51862;SDS011;37900;52.996;6.278;2022-12-29T03:44:36;2.92;;;1.80;;
51862;SDS011;37900;52.996;6.278;2022-12-29T03:47:04;2.03;;;1.50;;
51862;SDS011;37900;52.996;6.278;2022-12-29T03:49:31;2.90;;;1.42;;
51862;SDS011;37900;52.996;6.278;2022-12-29T03:51:57;2.20;;;1.40;;
51862;SDS011;37900;52.996;6.278;2022-12-29T03:54:23;2.95;;;1.73;;
51862;SDS011;37900;52.996;6.278;2022-12-29T03:56:48;2.20;;;1.77;;
51862;SDS011;37900;52.996;6.278;2022-12-29T03:59:14;2.63;;;1.70;;
51862;SDS011;37900;52.996;6.278;2022-12-29T04:01:40;3.20;;;1.98;;
51862;SDS011;37900;52.996;6.278;2022-12-29T04:04:05;3.03;;;1.67;;
51862;SDS011;37900;52.996;6.278;2022-12-29T04:06:31;2.63;;;1.40;;
51862;SDS011;37900;52.996;6.278;2022-12-29T04:08:57;2.17;;;1.38;;
51862;SDS011;37900;52.996;6.278;2022-12-29T04:11:23;3.17;;;1.90;;
51862;SDS011;37900;52.996;6.278;2022-12-29T04:13:48;3.42;;;2.00;;
51862;SDS011;37900;52.996;6.278;2022-12-29T04:16:14;2.60;;;1.70;;
51862;SDS011;37900;52.996;6.278;2022-12-29T04:18:40;3.05;;;2.03;;
51862;SDS011;37900;52.996;6.278;2022-12-29T04:21:06;1.90;;;1.30;;
51862;SDS011;37900;52.996;6.278;2022-12-29T04:23:35;2.53;;;1.48;;
51862;SDS011;37900;52.996;6.278;2022-12-29T04:26:02;1.83;;;1.35;;
51862;SDS011;37900;52.996;6.278;2022-12-29T04:28:29;3.00;;;1.80;;
51862;SDS011;37900;52.996;6.278;2022-12-29T04:30:55;1.92;;;1.25;;
51862;SDS011;37900;52.996;6.278;2022-12-29T04:33:21;1.67;;;1.30;;
51862;SDS011;37900;52.996;6.278;2022-12-29T04:35:47;3.60;;;1.98;;
51862;SDS011;37900;52.996;6.278;2022-12-29T04:38:13;3.08;;;1.73;;
51862;SDS011;37900;52.996;6.278;2022-12-29T04:40:40;3.05;;;1.33;;
51862;SDS011;37900;52.996;6.278;2022-12-29T04:43:07;2.33;;;1.80;;
51862;SDS011;37900;52.996;6.278;2022-12-29T04:45:33;2.72;;;1.52;;
51862;SDS011;37900;52.996;6.278;2022-12-29T04:47:58;2.65;;;1.35;;
51862;SDS011;37900;52.996;6.278;2022-12-29T04:50:24;1.77;;;1.27;;
51862;SDS011;37900;52.996;6.278;2022-12-29T04:52:50;3.28;;;1.40;;
51862;SDS011;37900;52.996;6.278;2022-12-29T04:55:15;2.70;;;1.50;;
51862;SDS011;37900;52.996;6.278;2022-12-29T04:57:41;3.45;;;1.45;;
51862;SDS011;37900;52.996;6.278;2022-12-29T05:00:07;2.15;;;1.55;;
51862;SDS011;37900;52.996;6.278;2022-12-29T05:02:36;1.73;;;1.40;;
51862;SDS011;37900;52.996;6.278;2022-12-29T05:05:03;2.27;;;1.57;;
51862;SDS011;37900;52.996;6.278;2022-12-29T05:07:29;2.13;;;1.30;;
51862;SDS011;37900;52.996;6.278;2022-12-29T05:09:55;1.92;;;1.40;;
51862;SDS011;37900;52.996;6.278;2022-12-29T05:12:21;1.75;;;1.30;;
51862;SDS011;37900;52.996;6.278;2022-12-29T05:14:46;3.47;;;1.70;;
51862;SDS011;37900;52.996;6.278;2022-12-29T05:17:12;1.40;;;1.30;;
51862;SDS011;37900;52.996;6.278;2022-12-29T05:19:38;2.15;;;1.40;;
51862;SDS011;37900;52.996;6.278;2022-12-29T05:22:04;1.98;;;1.20;;
51862;SDS011;37900;52.996;6.278;2022-12-29T05:24:29;2.63;;;1.48;;
51862;SDS011;37900;52.996;6.278;2022-12-29T05:26:55;2.78;;;1.60;;
51862;SDS011;37900;52.996;6.278;2022-12-29T05:29:21;1.88;;;1.25;;
51862;SDS011;37900;52.996;6.278;2022-12-29T05:31:46;1.67;;;1.33;;
51862;SDS011;37900;52.996;6.278;2022-12-29T05:34:12;1.95;;;1.40;;
51862;SDS011;37900;52.996;6.278;2022-12-29T05:36:38;2.30;;;1.60;;
51862;SDS011;37900;52.996;6.278;2022-12-29T05:39:04;1.55;;;1.30;;
51862;SDS011;37900;52.996;6.278;2022-12-29T05:41:32;2.30;;;1.55;;
51862;SDS011;37900;52.996;6.278;2022-12-29T05:43:59;3.00;;;1.42;;
51862;SDS011;37900;52.996;6.278;2022-12-29T05:46:25;1.23;;;0.95;;
51862;SDS011;37900;52.996;6.278;2022-12-29T05:48:51;3.13;;;1.33;;
51862;SDS011;37900;52.996;6.278;2022-12-29T05:51:16;2.78;;;1.30;;
51862;SDS011;37900;52.996;6.278;2022-12-29T05:53:42;2.08;;;1.33;;
51862;SDS011;37900;52.996;6.278;2022-12-29T05:56:08;1.88;;;1.20;;
51862;SDS011;37900;52.996;6.278;2022-12-29T05:58:33;2.00;;;1.23;;
51862;SDS011;37900;52.996;6.278;2022-12-29T06:00:59;1.15;;;1.02;;
51862;SDS011;37900;52.996;6.278;2022-12-29T06:03:25;1.85;;;1.25;;
51862;SDS011;37900;52.996;6.278;2022-12-29T06:05:51;1.60;;;1.30;;
51862;SDS011;37900;52.996;6.278;2022-12-29T06:08:17;2.97;;;1.38;;
51862;SDS011;37900;52.996;6.278;2022-12-29T06:10:42;2.67;;;1.73;;
51862;SDS011;37900;52.996;6.278;2022-12-29T06:13:08;2.08;;;1.42;;
51862;SDS011;37900;52.996;6.278;2022-12-29T06:15:34;2.08;;;1.40;;
51862;SDS011;37900;52.996;6.278;2022-12-29T06:18:00;1.27;;;0.90;;
51862;SDS011;37900;52.996;6.278;2022-12-29T06:20:26;3.08;;;1.30;;
51862;SDS011;37900;52.996;6.278;2022-12-29T06:22:52;2.22;;;1.48;;
51862;SDS011;37900;52.996;6.278;2022-12-29T06:25:18;3.33;;;1.27;;
51862;SDS011;37900;52.996;6.278;2022-12-29T06:27:43;1.35;;;1.25;;
51862;SDS011;37900;52.996;6.278;2022-12-29T06:30:09;2.72;;;1.42;;
51862;SDS011;37900;52.996;6.278;2022-12-29T06:32:36;1.98;;;0.95;;
51862;SDS011;37900;52.996;6.278;2022-12-29T06:35:02;2.83;;;1.20;;
51862;SDS011;37900;52.996;6.278;2022-12-29T06:37:29;2.88;;;1.42;;
51862;SDS011;37900;52.996;6.278;2022-12-29T06:39:55;2.15;;;1.20;;
51862;SDS011;37900;52.996;6.278;2022-12-29T06:42:20;2.40;;;1.10;;
51862;SDS011;37900;52.996;6.278;2022-12-29T06:44:46;1.65;;;1.00;;
51862;SDS011;37900;52.996;6.278;2022-12-29T06:47:12;2.38;;;1.27;;
51862;SDS011;37900;52.996;6.278;2022-12-29T06:49:38;1.30;;;1.17;;
51862;SDS011;37900;52.996;6.278;2022-12-29T06:52:03;2.10;;;1.40;;
51862;SDS011;37900;52.996;6.278;2022-12-29T06:54:32;2.53;;;1.42;;
51862;SDS011;37900;52.996;6.278;2022-12-29T06:56:59;2.55;;;1.48;;
51862;SDS011;37900;52.996;6.278;2022-12-29T06:59:25;1.85;;;1.20;;
51862;SDS011;37900;52.996;6.278;2022-12-29T07:01:51;2.25;;;1.30;;
51862;SDS011;37900;52.996;6.278;2022-12-29T07:04:17;1.70;;;1.00;;
51862;SDS011;37900;52.996;6.278;2022-12-29T07:06:43;1.88;;;1.25;;
51862;SDS011;37900;52.996;6.278;2022-12-29T07:09:08;2.30;;;1.17;;
51862;SDS011;37900;52.996;6.278;2022-12-29T07:11:35;2.42;;;1.25;;
51862;SDS011;37900;52.996;6.278;2022-12-29T07:14:01;1.45;;;1.00;;
51862;SDS011;37900;52.996;6.278;2022-12-29T07:16:27;1.60;;;1.10;;
51862;SDS011;37900;52.996;6.278;2022-12-29T07:18:54;2.60;;;1.10;;
51862;SDS011;37900;52.996;6.278;2022-12-29T07:21:20;2.53;;;1.20;;
51862;SDS011;37900;52.996;6.278;2022-12-29T07:23:47;2.45;;;1.35;;
51862;SDS011;37900;52.996;6.278;2022-12-29T07:26:13;2.10;;;1.50;;
51862;SDS011;37900;52.996;6.278;2022-12-29T07:28:40;2.03;;;1.25;;
51862;SDS011;37900;52.996;6.278;2022-12-29T07:31:09;1.95;;;1.20;;
51862;SDS011;37900;52.996;6.278;2022-12-29T07:33:40;1.90;;;1.00;;
51862;SDS011;37900;52.996;6.278;2022-12-29T07:36:06;2.08;;;1.00;;
51862;SDS011;37900;52.996;6.278;2022-12-29T07:38:32;1.88;;;1.30;;
51862;SDS011;37900;52.996;6.278;2022-12-29T07:40:58;1.75;;;0.95;;
51862;SDS011;37900;52.996;6.278;2022-12-29T07:43:24;2.67;;;1.45;;
51862;SDS011;37900;52.996;6.278;2022-12-29T07:45:50;2.45;;;1.20;;
51862;SDS011;37900;52.996;6.278;2022-12-29T07:48:15;2.20;;;1.27;;
51862;SDS011;37900;52.996;6.278;2022-12-29T07:50:41;2.88;;;1.40;;
51862;SDS011;37900;52.996;6.278;2022-12-29T07:53:07;2.22;;;1.00;;
51862;SDS011;37900;52.996;6.278;2022-12-29T07:55:32;1.80;;;1.00;;
51862;SDS011;37900;52.996;6.278;2022-12-29T07:57:58;5.05;;;1.40;;
51862;SDS011;37900;52.996;6.278;2022-12-29T08:00:24;2.20;;;1.10;;
51862;SDS011;37900;52.996;6.278;2022-12-29T08:02:50;1.90;;;1.23;;
51862;SDS011;37900;52.996;6.278;2022-12-29T08:05:15;2.30;;;1.23;;
51862;SDS011;37900;52.996;6.278;2022-12-29T08:07:45;2.22;;;1.10;;
51862;SDS011;37900;52.996;6.278;2022-12-29T08:10:11;2.92;;;1.17;;
51862;SDS011;37900;52.996;6.278;2022-12-29T08:12:37;2.22;;;1.10;;
51862;SDS011;37900;52.996;6.278;2022-12-29T08:15:04;2.20;;;1.35;;
51862;SDS011;37900;52.996;6.278;2022-12-29T08:17:30;1.93;;;0.90;;
51862;SDS011;37900;52.996;6.278;2022-12-29T08:19:56;2.78;;;1.40;;
51862;SDS011;37900;52.996;6.278;2022-12-29T08:22:22;2.58;;;1.38;;
51862;SDS011;37900;52.996;6.278;2022-12-29T08:24:48;5.95;;;2.00;;
51862;SDS011;37900;52.996;6.278;2022-12-29T08:27:13;2.30;;;1.45;;
51862;SDS011;37900;52.996;6.278;2022-12-29T08:29:39;3.15;;;1.58;;
51862;SDS011;37900;52.996;6.278;2022-12-29T08:32:05;4.45;;;2.05;;
51862;SDS011;37900;52.996;6.278;2022-12-29T08:34:31;4.35;;;1.85;;
51862;SDS011;37900;52.996;6.278;2022-12-29T08:36:57;4.63;;;1.92;;
51862;SDS011;37900;52.996;6.278;2022-12-29T08:39:22;3.17;;;1.67;;
51862;SDS011;37900;52.996;6.278;2022-12-29T08:41:48;3.78;;;2.00;;
51862;SDS011;37900;52.996;6.278;2022-12-29T08:44:14;4.53;;;1.92;;
51862;SDS011;37900;52.996;6.278;2022-12-29T08:46:40;2.15;;;1.58;;
51862;SDS011;37900;52.996;6.278;2022-12-29T08:49:06;2.75;;;1.50;;
51862;SDS011;37900;52.996;6.278;2022-12-29T08:51:31;2.22;;;1.52;;
51862;SDS011;37900;52.996;6.278;2022-12-29T08:53:57;3.00;;;1.90;;
51862;SDS011;37900;52.996;6.278;2022-12-29T08:56:25;3.60;;;1.92;;
51862;SDS011;37900;52.996;6.278;2022-12-29T08:58:51;3.38;;;1.75;;
51862;SDS011;37900;52.996;6.278;2022-12-29T09:01:17;3.28;;;1.92;;
51862;SDS011;37900;52.996;6.278;2022-12-29T09:03:43;5.68;;;2.90;;
51862;SDS011;37900;52.996;6.278;2022-12-29T09:06:09;6.65;;;2.22;;
51862;SDS011;37900;52.996;6.278;2022-12-29T09:08:35;4.90;;;2.10;;
51862;SDS011;37900;52.996;6.278;2022-12-29T09:11:15;3.60;;;1.92;;
51862;SDS011;37900;52.996;6.278;2022-12-29T09:13:46;4.50;;;2.17;;
51862;SDS011;37900;52.996;6.278;2022-12-29T09:16:12;2.83;;;1.90;;
51862;SDS011;37900;52.996;6.278;2022-12-29T09:18:38;5.95;;;2.40;;
51862;SDS011;37900;52.996;6.278;2022-12-29T09:21:04;4.10;;;2.17;;
51862;SDS011;37900;52.996;6.278;2022-12-29T09:23:31;4.60;;;1.75;;
51862;SDS011;37900;52.996;6.278;2022-12-29T09:25:57;4.13;;;1.83;;
51862;SDS011;37900;52.996;6.278;2022-12-29T09:28:23;7.13;;;2.13;;
51862;SDS011;37900;52.996;6.278;2022-12-29T09:30:49;9.85;;;5.13;;
51862;SDS011;37900;52.996;6.278;2022-12-29T09:33:15;15.68;;;9.07;;
51862;SDS011;37900;52.996;6.278;2022-12-29T09:35:45;17.15;;;7.97;;
51862;SDS011;37900;52.996;6.278;2022-12-29T09:38:18;10.85;;;6.30;;
51862;SDS011;37900;52.996;6.278;2022-12-29T09:40:45;11.67;;;5.77;;
51862;SDS011;37900;52.996;6.278;2022-12-29T09:46:07;8.80;;;4.00;;
51862;SDS011;37900;52.996;6.278;2022-12-29T09:48:39;5.20;;;3.50;;
51862;SDS011;37900;52.996;6.278;2022-12-29T09:51:10;6.38;;;3.53;;
51862;SDS011;37900;52.996;6.278;2022-12-29T09:56:10;8.38;;;4.45;;
51862;SDS011;37900;52.996;6.278;2022-12-29T10:03:55;7.25;;;3.40;;
51862;SDS011;37900;52.996;6.278;2022-12-29T10:06:28;6.65;;;4.07;;
51862;SDS011;37900;52.996;6.278;2022-12-29T10:17:01;9.52;;;4.13;;
51862;SDS011;37900;52.996;6.278;2022-12-29T10:25:16;7.03;;;3.70;;
51862;SDS011;37900;52.996;6.278;2022-12-29T10:27:47;6.72;;;3.55;;
51862;SDS011;37900;52.996;6.278;2022-12-29T10:30:16;7.93;;;3.78;;
51862;SDS011;37900;52.996;6.278;2022-12-29T10:33:05;6.13;;;3.50;;
51862;SDS011;37900;52.996;6.278;2022-12-29T10:35:36;5.63;;;3.00;;
51862;SDS011;37900;52.996;6.278;2022-12-29T10:43:07;7.88;;;4.35;;
51862;SDS011;37900;52.996;6.278;2022-12-29T10:45:50;7.10;;;3.60;;
51862;SDS011;37900;52.996;6.278;2022-12-29T10:48:22;7.63;;;3.72;;
51862;SDS011;37900;52.996;6.278;2022-12-29T10:50:58;5.53;;;3.38;;
51862;SDS011;37900;52.996;6.278;2022-12-29T10:53:38;7.18;;;3.38;;
51862;SDS011;37900;52.996;6.278;2022-12-29T10:56:19;9.85;;;3.70;;
51862;SDS011;37900;52.996;6.278;2022-12-29T10:58:51;5.45;;;3.17;;
51862;SDS011;37900;52.996;6.278;2022-12-29T11:01:20;5.03;;;2.85;;
51862;SDS011;37900;52.996;6.278;2022-12-29T11:06:24;5.85;;;3.00;;
51862;SDS011;37900;52.996;6.278;2022-12-29T11:09:02;6.97;;;3.35;;
51862;SDS011;37900;52.996;6.278;2022-12-29T11:11:34;6.55;;;2.95;;
51862;SDS011;37900;52.996;6.278;2022-12-29T11:14:18;5.85;;;3.00;;
51862;SDS011;37900;52.996;6.278;2022-12-29T11:16:59;6.22;;;2.80;;
51862;SDS011;37900;52.996;6.278;2022-12-29T11:19:30;5.68;;;3.20;;
51862;SDS011;37900;52.996;6.278;2022-12-29T11:24:45;5.05;;;3.15;;
51862;SDS011;37900;52.996;6.278;2022-12-29T11:27:19;3.88;;;2.78;;
51862;SDS011;37900;52.996;6.278;2022-12-29T11:29:50;6.27;;;2.70;;
51862;SDS011;37900;52.996;6.278;2022-12-29T11:34:43;4.45;;;2.70;;
51862;SDS011;37900;52.996;6.278;2022-12-29T11:37:55;4.88;;;2.47;;
51862;SDS011;37900;52.996;6.278;2022-12-29T11:42:48;6.03;;;2.85;;
51862;SDS011;37900;52.996;6.278;2022-12-29T11:47:54;5.68;;;3.40;;
51862;SDS011;37900;52.996;6.278;2022-12-29T11:50:27;5.22;;;2.80;;
51862;SDS011;37900;52.996;6.278;2022-12-29T11:55:58;7.13;;;3.00;;
51862;SDS011;37900;52.996;6.278;2022-12-29T11:58:33;5.20;;;2.50;;
51862;SDS011;37900;52.996;6.278;2022-12-29T12:01:18;4.95;;;2.80;;
51862;SDS011;37900;52.996;6.278;2022-12-29T12:04:08;4.32;;;2.63;;
51862;SDS011;37900;52.996;6.278;2022-12-29T12:07:24;5.45;;;3.05;;
51862;SDS011;37900;52.996;6.278;2022-12-29T12:09:58;4.75;;;2.28;;
51862;SDS011;37900;52.996;6.278;2022-12-29T12:12:29;4.50;;;2.45;;
51862;SDS011;37900;52.996;6.278;2022-12-29T12:15:31;4.65;;;2.30;;
51862;SDS011;37900;52.996;6.278;2022-12-29T12:18:21;4.15;;;2.35;;
51862;SDS011;37900;52.996;6.278;2022-12-29T12:21:09;5.07;;;2.70;;
51862;SDS011;37900;52.996;6.278;2022-12-29T12:29:34;4.95;;;2.70;;
51862;SDS011;37900;52.996;6.278;2022-12-29T12:34:43;4.88;;;2.25;;
51862;SDS011;37900;52.996;6.278;2022-12-29T12:45:38;5.47;;;2.47;;
51862;SDS011;37900;52.996;6.278;2022-12-29T12:51:20;5.28;;;2.55;;
51862;SDS011;37900;52.996;6.278;2022-12-29T12:54:08;3.70;;;2.42;;
51862;SDS011;37900;52.996;6.278;2022-12-29T12:56:51;4.50;;;2.60;;
51862;SDS011;37900;52.996;6.278;2022-12-29T13:02:22;4.18;;;2.40;;
51862;SDS011;37900;52.996;6.278;2022-12-29T13:07:45;4.80;;;2.20;;
51862;SDS011;37900;52.996;6.278;2022-12-29T13:16:22;3.67;;;2.25;;
51862;SDS011;37900;52.996;6.278;2022-12-29T13:22:38;4.93;;;2.20;;
51862;SDS011;37900;52.996;6.278;2022-12-29T13:25:29;4.53;;;2.55;;
51862;SDS011;37900;52.996;6.278;2022-12-29T13:28:22;4.07;;;2.22;;
51862;SDS011;37900;52.996;6.278;2022-12-29T13:31:00;4.55;;;2.25;;
51862;SDS011;37900;52.996;6.278;2022-12-29T13:39:01;9.75;;;2.65;;
51862;SDS011;37900;52.996;6.278;2022-12-29T13:41:44;5.57;;;2.50;;
51862;SDS011;37900;52.996;6.278;2022-12-29T13:47:36;11.07;;;3.70;;
51862;SDS011;37900;52.996;6.278;2022-12-29T13:50:03;10.18;;;4.25;;
51862;SDS011;37900;52.996;6.278;2022-12-29T13:52:37;5.45;;;3.33;;
51862;SDS011;37900;52.996;6.278;2022-12-29T14:00:56;8.15;;;3.35;;
51862;SDS011;37900;52.996;6.278;2022-12-29T14:06:21;6.43;;;3.05;;
51862;SDS011;37900;52.996;6.278;2022-12-29T14:08:55;7.47;;;3.83;;
51862;SDS011;37900;52.996;6.278;2022-12-29T14:11:31;5.75;;;3.00;;
51862;SDS011;37900;52.996;6.278;2022-12-29T14:13:59;7.28;;;3.28;;
51862;SDS011;37900;52.996;6.278;2022-12-29T14:16:36;7.90;;;2.85;;
51862;SDS011;37900;52.996;6.278;2022-12-29T14:19:22;7.53;;;2.97;;
51862;SDS011;37900;52.996;6.278;2022-12-29T14:21:58;6.20;;;2.78;;
51862;SDS011;37900;52.996;6.278;2022-12-29T14:34:53;7.13;;;3.15;;
51862;SDS011;37900;52.996;6.278;2022-12-29T14:37:27;7.50;;;2.67;;
51862;SDS011;37900;52.996;6.278;2022-12-29T14:42:44;7.18;;;3.35;;
51862;SDS011;37900;52.996;6.278;2022-12-29T14:47:44;6.63;;;3.10;;
51862;SDS011;37900;52.996;6.278;2022-12-29T14:50:16;5.60;;;2.60;;
51862;SDS011;37900;52.996;6.278;2022-12-29T14:52:50;7.15;;;2.92;;
51862;SDS011;37900;52.996;6.278;2022-12-29T14:57:48;6.95;;;2.70;;
51862;SDS011;37900;52.996;6.278;2022-12-29T15:00:19;10.30;;;3.20;;
51862;SDS011;37900;52.996;6.278;2022-12-29T15:05:53;7.45;;;2.60;;
51862;SDS011;37900;52.996;6.278;2022-12-29T15:08:44;6.43;;;2.50;;
51862;SDS011;37900;52.996;6.278;2022-12-29T15:11:22;7.30;;;2.40;;
51862;SDS011;37900;52.996;6.278;2022-12-29T15:16:57;6.28;;;2.50;;
51862;SDS011;37900;52.996;6.278;2022-12-29T15:19:24;5.45;;;2.42;;
51862;SDS011;37900;52.996;6.278;2022-12-29T15:21:51;5.78;;;2.28;;
51862;SDS011;37900;52.996;6.278;2022-12-29T15:24:19;5.68;;;2.10;;
51862;SDS011;37900;52.996;6.278;2022-12-29T15:26:51;5.45;;;2.42;;
51862;SDS011;37900;52.996;6.278;2022-12-29T15:29:38;5.32;;;2.13;;
51862;SDS011;37900;52.996;6.278;2022-12-29T15:34:40;6.05;;;2.20;;
51862;SDS011;37900;52.996;6.278;2022-12-29T15:37:07;7.60;;;2.78;;
51862;SDS011;37900;52.996;6.278;2022-12-29T15:39:33;6.80;;;2.35;;
51862;SDS011;37900;52.996;6.278;2022-12-29T15:42:06;5.70;;;3.03;;
51862;SDS011;37900;52.996;6.278;2022-12-29T15:44:51;3.25;;;2.00;;
51862;SDS011;37900;52.996;6.278;2022-12-29T15:47:18;6.13;;;2.90;;
51862;SDS011;37900;52.996;6.278;2022-12-29T15:49:50;5.72;;;2.42;;
51862;SDS011;37900;52.996;6.278;2022-12-29T15:52:19;4.15;;;2.45;;
51862;SDS011;37900;52.996;6.278;2022-12-29T15:54:46;5.55;;;2.22;;
51862;SDS011;37900;52.996;6.278;2022-12-29T15:57:24;4.82;;;2.53;;
51862;SDS011;37900;52.996;6.278;2022-12-29T15:59:52;5.50;;;2.78;;
51862;SDS011;37900;52.996;6.278;2022-12-29T16:02:19;9.23;;;2.65;;
51862;SDS011;37900;52.996;6.278;2022-12-29T16:04:47;6.55;;;2.50;;
51862;SDS011;37900;52.996;6.278;2022-12-29T16:07:24;4.15;;;2.00;;
51862;SDS011;37900;52.996;6.278;2022-12-29T16:09:59;4.13;;;2.20;;
51862;SDS011;37900;52.996;6.278;2022-12-29T16:12:31;3.30;;;1.75;;
51862;SDS011;37900;52.996;6.278;2022-12-29T16:15:12;4.55;;;1.95;;
51862;SDS011;37900;52.996;6.278;2022-12-29T16:17:49;6.70;;;2.55;;
51862;SDS011;37900;52.996;6.278;2022-12-29T16:20:21;5.80;;;2.00;;
51862;SDS011;37900;52.996;6.278;2022-12-29T16:22:51;3.33;;;1.98;;
51862;SDS011;37900;52.996;6.278;2022-12-29T16:25:33;3.65;;;2.00;;
51862;SDS011;37900;52.996;6.278;2022-12-29T16:28:02;4.05;;;1.83;;
51862;SDS011;37900;52.996;6.278;2022-12-29T16:30:42;4.78;;;1.90;;
51862;SDS011;37900;52.996;6.278;2022-12-29T16:35:57;4.95;;;2.38;;
51862;SDS011;37900;52.996;6.278;2022-12-29T16:38:23;3.47;;;1.98;;
51862;SDS011;37900;52.996;6.278;2022-12-29T16:40:58;4.13;;;1.80;;
51862;SDS011;37900;52.996;6.278;2022-12-29T16:43:32;5.20;;;2.30;;
51862;SDS011;37900;52.996;6.278;2022-12-29T16:46:26;6.05;;;2.60;;
51862;SDS011;37900;52.996;6.278;2022-12-29T16:48:53;4.72;;;2.22;;
51862;SDS011;37900;52.996;6.278;2022-12-29T16:51:23;5.10;;;2.42;;
51862;SDS011;37900;52.996;6.278;2022-12-29T16:53:57;6.00;;;2.28;;
51862;SDS011;37900;52.996;6.278;2022-12-29T16:56:31;5.00;;;2.10;;
51862;SDS011;37900;52.996;6.278;2022-12-29T16:59:05;5.13;;;2.05;;
51862;SDS011;37900;52.996;6.278;2022-12-29T17:01:37;5.45;;;2.28;;
51862;SDS011;37900;52.996;6.278;2022-12-29T17:04:10;17.52;;;2.35;;
51862;SDS011;37900;52.996;6.278;2022-12-29T17:06:38;4.97;;;2.50;;
51862;SDS011;37900;52.996;6.278;2022-12-29T17:09:24;5.00;;;1.80;;
51862;SDS011;37900;52.996;6.278;2022-12-29T17:11:52;7.95;;;2.80;;
51862;SDS011;37900;52.996;6.278;2022-12-29T17:17:12;5.22;;;2.33;;
51862;SDS011;37900;52.996;6.278;2022-12-29T17:19:39;4.57;;;2.17;;
51862;SDS011;37900;52.996;6.278;2022-12-29T17:22:15;5.35;;;2.20;;
51862;SDS011;37900;52.996;6.278;2022-12-29T17:24:43;3.67;;;1.83;;
51862;SDS011;37900;52.996;6.278;2022-12-29T17:27:09;4.22;;;1.70;;
51862;SDS011;37900;52.996;6.278;2022-12-29T17:29:51;3.38;;;1.65;;
51862;SDS011;37900;52.996;6.278;2022-12-29T17:32:21;5.03;;;1.95;;
51862;SDS011;37900;52.996;6.278;2022-12-29T17:34:47;2.70;;;1.52;;
51862;SDS011;37900;52.996;6.278;2022-12-29T17:37:55;3.67;;;1.88;;
51862;SDS011;37900;52.996;6.278;2022-12-29T17:40:02;7.88;;;2.13;;
51862;SDS011;37900;52.996;6.278;2022-12-29T17:42:31;5.72;;;2.10;;
51862;SDS011;37900;52.996;6.278;2022-12-29T17:45:00;3.92;;;1.92;;
51862;SDS011;37900;52.996;6.278;2022-12-29T17:47:27;3.75;;;1.73;;
51862;SDS011;37900;52.996;6.278;2022-12-29T17:49:52;4.15;;;2.25;;
51862;SDS011;37900;52.996;6.278;2022-12-29T17:52:18;4.45;;;2.00;;
51862;SDS011;37900;52.996;6.278;2022-12-29T17:54:45;3.67;;;1.83;;
51862;SDS011;37900;52.996;6.278;2022-12-29T17:57:14;3.78;;;2.05;;
51862;SDS011;37900;52.996;6.278;2022-12-29T17:59:42;4.03;;;2.08;;
51862;SDS011;37900;52.996;6.278;2022-12-29T18:02:27;4.28;;;2.03;;
51862;SDS011;37900;52.996;6.278;2022-12-29T18:04:56;4.10;;;2.03;;
51862;SDS011;37900;52.996;6.278;2022-12-29T18:09:53;4.13;;;2.03;;